Time;durP1;ratioP1;P1;durP2;ratioP2;P2;SDS_P1;SDS_P2;PMS_P1;PMS_P2;Temp;Humidity;BMP_temperature;BMP_pressure;BME280_temperature;BME280_humidity;BME280_pressure;Samples;Min_cycle;Max_cycle;Signal;HPM_P1;HPM_P2
2023/12/02 00:02:05;;;;;;;21.40;12.07;;;1.00;99.90;;;;;;5028662;28;20048;-66
2023/12/02 00:04:33;;;;;;;25.63;12.00;;;1.00;99.90;;;;;;5029220;28;20390;-66
2023/12/02 00:07:00;;;;;;;20.08;9.57;;;1.00;99.90;;;;;;5029719;28;20052;-66
2023/12/02 00:09:26;;;;;;;20.23;10.77;;;0.80;99.90;;;;;;5029206;28;20103;-65
2023/12/02 00:11:54;;;;;;;20.55;11.18;;;0.80;99.90;;;;;;5029495;28;20088;-66
2023/12/02 00:14:20;;;;;;;18.42;10.82;;;0.90;99.90;;;;;;5027216;28;20060;-66
2023/12/02 00:16:47;;;;;;;21.50;10.57;;;0.80;99.90;;;;;;5029480;28;20104;-66
2023/12/02 00:19:14;;;;;;;18.85;10.30;;;0.90;99.90;;;;;;5028640;28;20080;-66
2023/12/02 00:21:41;;;;;;;17.63;9.23;;;0.90;99.90;;;;;;5029310;28;20068;-66
2023/12/02 00:24:08;;;;;;;22.38;11.70;;;0.80;99.90;;;;;;5010055;28;20049;-66
2023/12/02 00:26:35;;;;;;;19.60;9.15;;;0.80;99.90;;;;;;5023297;28;20485;-66
2023/12/02 00:29:02;;;;;;;22.45;10.05;;;0.80;99.90;;;;;;5028688;28;20059;-66
2023/12/02 00:31:29;;;;;;;25.55;9.82;;;0.80;99.90;;;;;;5011581;28;20128;-66
2023/12/02 00:33:57;;;;;;;14.05;8.00;;;0.90;99.90;;;;;;4993939;28;20046;-66
2023/12/02 00:36:24;;;;;;;23.08;8.57;;;0.90;99.90;;;;;;4987401;28;20045;-66
2023/12/02 00:38:51;;;;;;;18.73;8.77;;;0.90;99.90;;;;;;5029210;28;20049;-67
2023/12/02 00:41:18;;;;;;;16.35;8.18;;;0.90;99.90;;;;;;5028575;28;20134;-67
2023/12/02 00:43:45;;;;;;;17.48;9.25;;;1.20;99.90;;;;;;5028470;28;20574;-67
2023/12/02 00:46:12;;;;;;;15.93;8.98;;;1.00;99.90;;;;;;5027033;28;20637;-66
2023/12/02 00:48:39;;;;;;;16.38;8.35;;;1.10;99.90;;;;;;5025797;28;20085;-66
2023/12/02 00:51:06;;;;;;;20.17;9.07;;;1.30;99.90;;;;;;5025548;28;20049;-66
2023/12/02 00:53:33;;;;;;;17.85;9.10;;;1.10;99.90;;;;;;5022618;28;20542;-66
2023/12/02 00:56:00;;;;;;;15.45;8.88;;;1.10;99.90;;;;;;5024120;28;20096;-66
2023/12/02 00:58:27;;;;;;;16.60;8.07;;;1.10;99.90;;;;;;5028377;28;20107;-67
2023/12/02 01:01:07;;;;;;;14.95;7.95;;;1.00;99.90;;;;;;5027950;28;20107;-66
2023/12/02 01:03:34;;;;;;;14.77;9.05;;;1.00;99.90;;;;;;5027986;28;20452;-66
2023/12/02 01:06:01;;;;;;;18.90;9.07;;;1.00;99.90;;;;;;5024835;28;20041;-66
2023/12/02 01:08:27;;;;;;;16.33;8.57;;;1.10;99.90;;;;;;5010434;28;20072;-67
2023/12/02 01:10:54;;;;;;;16.20;8.68;;;1.10;99.90;;;;;;5027268;28;20106;-66
2023/12/02 01:13:21;;;;;;;17.67;9.45;;;1.10;99.90;;;;;;5028125;28;20053;-66
2023/12/02 01:15:48;;;;;;;18.48;9.00;;;1.10;99.90;;;;;;5012568;28;20049;-67
2023/12/02 01:18:15;;;;;;;18.35;9.45;;;1.00;99.90;;;;;;5029660;28;20073;-66
2023/12/02 01:20:42;;;;;;;19.63;9.07;;;1.00;99.90;;;;;;5027888;28;20056;-66
2023/12/02 01:23:09;;;;;;;18.08;9.50;;;1.00;99.90;;;;;;5026276;28;20045;-66
2023/12/02 01:25:36;;;;;;;16.25;8.65;;;1.00;99.90;;;;;;4676222;28;10000315;-66
2023/12/02 01:28:03;;;;;;;20.45;9.52;;;0.90;99.90;;;;;;5006006;28;20046;-66
2023/12/02 01:30:29;;;;;;;16.38;8.20;;;0.90;99.90;;;;;;5026061;28;20562;-66
2023/12/02 01:32:56;;;;;;;17.67;9.35;;;0.80;99.90;;;;;;5021581;28;20045;-66
2023/12/02 01:35:23;;;;;;;13.38;7.72;;;0.80;99.90;;;;;;5009709;28;20046;-67
2023/12/02 01:37:50;;;;;;;15.50;8.65;;;0.90;99.90;;;;;;5026329;28;20108;-67
2023/12/02 01:40:17;;;;;;;15.13;7.82;;;0.80;99.90;;;;;;5027592;28;20041;-66
2023/12/02 01:42:44;;;;;;;17.33;8.77;;;0.80;99.90;;;;;;5027158;28;20064;-67
2023/12/02 01:45:11;;;;;;;14.38;7.00;;;0.80;99.90;;;;;;5027247;28;20349;-66
2023/12/02 01:47:38;;;;;;;18.85;9.30;;;0.80;99.90;;;;;;5025841;28;20057;-67
2023/12/02 01:50:06;;;;;;;16.10;9.07;;;0.70;99.90;;;;;;5009093;28;20053;-66
2023/12/02 01:52:33;;;;;;;14.80;8.32;;;0.80;99.90;;;;;;5026508;28;20085;-66
2023/12/02 01:55:00;;;;;;;16.00;8.63;;;0.70;99.90;;;;;;5008932;28;20095;-66
2023/12/02 01:57:27;;;;;;;16.35;8.55;;;0.90;99.90;;;;;;5023977;28;20052;-66
2023/12/02 01:59:54;;;;;;;16.23;9.43;;;0.80;99.90;;;;;;4993956;28;20045;-66
2023/12/02 02:02:22;;;;;;;17.60;8.27;;;0.80;99.90;;;;;;5026955;28;20053;-66
2023/12/02 02:04:49;;;;;;;16.05;8.07;;;0.80;99.90;;;;;;5024701;28;20338;-67
2023/12/02 02:07:17;;;;;;;19.58;8.98;;;0.80;99.90;;;;;;5010327;28;20053;-67
2023/12/02 02:09:47;;;;;;;15.35;9.68;;;0.80;99.90;;;;;;5010234;28;20342;-66
2023/12/02 02:12:14;;;;;;;17.50;9.50;;;0.80;99.90;;;;;;5010441;28;20068;-65
2023/12/02 02:14:41;;;;;;;18.15;9.65;;;0.80;99.90;;;;;;5026927;28;20045;-66
2023/12/02 02:17:08;;;;;;;19.88;9.02;;;0.80;99.90;;;;;;5027684;28;20053;-66
2023/12/02 02:19:35;;;;;;;27.10;9.73;;;0.70;99.90;;;;;;5027125;28;20053;-66
2023/12/02 02:22:02;;;;;;;21.58;10.98;;;0.80;99.90;;;;;;5027639;28;20399;-66
2023/12/02 02:24:29;;;;;;;25.65;11.15;;;0.80;99.90;;;;;;5025116;28;20361;-66
2023/12/02 02:26:56;;;;;;;21.10;8.98;;;0.80;99.90;;;;;;5024368;28;20049;-66
2023/12/02 02:29:23;;;;;;;23.05;10.25;;;0.80;99.90;;;;;;5027188;28;20054;-67
2023/12/02 02:31:50;;;;;;;19.52;9.50;;;0.80;99.90;;;;;;5027191;28;20068;-66
2023/12/02 02:34:17;;;;;;;20.88;10.38;;;0.80;99.90;;;;;;5025241;28;20053;-66
2023/12/02 02:36:44;;;;;;;19.33;11.23;;;0.80;99.90;;;;;;5025094;28;20042;-66
2023/12/02 02:39:11;;;;;;;19.40;10.57;;;0.80;99.90;;;;;;5025537;28;20049;-66
2023/12/02 02:41:38;;;;;;;21.95;10.25;;;1.00;99.90;;;;;;5027034;28;20183;-66
2023/12/02 02:44:06;;;;;;;19.38;9.85;;;0.80;99.90;;;;;;5009432;28;20041;-66
2023/12/02 02:46:33;;;;;;;24.95;9.38;;;0.80;99.90;;;;;;5026813;28;20497;-66
2023/12/02 02:48:59;;;;;;;20.20;9.50;;;0.90;99.90;;;;;;5026561;28;20049;-66
2023/12/02 02:51:27;;;;;;;19.52;9.98;;;0.90;99.90;;;;;;5026544;28;20118;-66
2023/12/02 02:53:54;;;;;;;18.17;9.73;;;1.00;99.90;;;;;;5026407;28;20045;-66
2023/12/02 02:56:21;;;;;;;24.15;10.52;;;0.90;99.90;;;;;;5024503;28;20492;-66
2023/12/02 02:58:47;;;;;;;21.08;10.02;;;1.00;99.90;;;;;;5008847;28;20099;-66
2023/12/02 03:01:14;;;;;;;20.65;9.40;;;1.00;99.90;;;;;;5007800;28;20041;-66
2023/12/02 03:03:41;;;;;;;20.70;11.25;;;1.00;99.90;;;;;;5010438;28;20041;-66
2023/12/02 03:06:08;;;;;;;17.70;9.25;;;1.10;99.90;;;;;;5028865;28;20525;-66
2023/12/02 03:08:35;;;;;;;22.08;10.02;;;1.00;99.90;;;;;;5009176;28;20038;-66
2023/12/02 03:11:02;;;;;;;24.80;9.68;;;1.00;99.90;;;;;;5030049;28;20060;-65
2023/12/02 03:13:29;;;;;;;17.77;8.40;;;0.90;99.90;;;;;;5027473;28;20464;-67
2023/12/02 03:15:56;;;;;;;18.17;9.23;;;0.90;99.90;;;;;;5027498;28;20105;-67
2023/12/02 03:18:23;;;;;;;23.17;8.98;;;0.90;99.90;;;;;;5010149;28;21009;-66
2023/12/02 03:20:50;;;;;;;16.40;8.82;;;0.80;99.90;;;;;;5029642;28;20556;-66
2023/12/02 03:23:17;;;;;;;19.08;9.38;;;0.80;99.90;;;;;;5029120;28;20053;-66
2023/12/02 03:25:43;;;;;;;21.48;9.00;;;0.90;99.90;;;;;;5026866;28;20073;-66
2023/12/02 03:28:12;;;;;;;20.05;10.40;;;0.90;99.90;;;;;;5030866;28;20065;-67
2023/12/02 03:30:39;;;;;;;18.20;9.07;;;0.90;99.90;;;;;;5028800;28;20049;-67
2023/12/02 03:33:06;;;;;;;20.83;9.55;;;0.80;99.90;;;;;;5030073;28;20052;-66
2023/12/02 03:35:33;;;;;;;16.25;9.25;;;0.70;99.90;;;;;;5028974;28;20053;-67
2023/12/02 03:38:00;;;;;;;19.35;9.95;;;0.80;99.90;;;;;;5009540;28;20049;-66
2023/12/02 03:40:27;;;;;;;18.13;8.63;;;0.70;99.90;;;;;;5029994;28;20054;-66
2023/12/02 03:42:54;;;;;;;20.55;9.60;;;0.70;99.90;;;;;;5030477;28;20041;-66
2023/12/02 03:45:21;;;;;;;25.30;10.40;;;0.60;99.90;;;;;;5040212;28;20045;-66
2023/12/02 03:47:48;;;;;;;22.48;9.88;;;0.70;99.90;;;;;;5029952;28;20053;-66
2023/12/02 03:50:15;;;;;;;22.02;8.73;;;0.70;99.90;;;;;;5013563;28;20058;-67
2023/12/02 03:52:44;;;;;;;18.42;9.25;;;0.70;99.90;;;;;;5016805;28;20129;-66
2023/12/02 03:55:11;;;;;;;14.38;8.48;;;0.60;99.90;;;;;;5012902;28;20099;-66
2023/12/02 03:57:38;;;;;;;19.90;9.55;;;0.80;99.90;;;;;;5029948;28;20053;-66
2023/12/02 04:00:11;;;;;;;20.48;10.15;;;0.60;99.90;;;;;;5029564;28;20420;-66
2023/12/02 04:02:39;;;;;;;22.17;10.25;;;0.50;99.90;;;;;;5028403;28;20037;-66
2023/12/02 04:05:09;;;;;;;22.17;8.82;;;0.60;99.90;;;;;;5026343;28;20511;-66
2023/12/02 04:07:39;;;;;;;19.90;8.38;;;0.60;99.90;;;;;;5027104;28;20055;-66
2023/12/02 04:10:07;;;;;;;24.70;10.25;;;0.70;99.90;;;;;;5028422;28;20041;-68
2023/12/02 04:12:34;;;;;;;17.05;8.90;;;0.50;99.90;;;;;;5009550;28;20049;-66
2023/12/02 04:15:01;;;;;;;18.23;8.95;;;0.60;99.90;;;;;;5009098;28;20052;-66
2023/12/02 04:17:28;;;;;;;18.15;8.05;;;0.50;99.90;;;;;;5009392;28;20099;-66
2023/12/02 04:19:56;;;;;;;19.55;9.10;;;0.60;99.90;;;;;;5009767;28;20049;-66
2023/12/02 04:22:22;;;;;;;19.27;8.82;;;0.60;99.90;;;;;;5025438;28;20455;-66
2023/12/02 04:24:49;;;;;;;15.43;7.88;;;0.60;99.90;;;;;;5026925;28;20068;-66
2023/12/02 04:27:16;;;;;;;16.63;8.60;;;0.50;99.90;;;;;;5027143;28;20541;-66
2023/12/02 04:29:43;;;;;;;17.20;8.40;;;0.50;99.90;;;;;;4996689;28;20112;-66
2023/12/02 04:32:10;;;;;;;17.00;8.18;;;0.50;99.90;;;;;;5028067;28;20042;-66
2023/12/02 04:34:37;;;;;;;27.50;8.70;;;0.50;99.90;;;;;;4993276;28;20107;-66
2023/12/02 04:37:04;;;;;;;19.20;8.50;;;0.50;99.90;;;;;;5030197;28;20066;-67
2023/12/02 04:39:31;;;;;;;18.90;8.30;;;0.60;99.90;;;;;;5029914;28;20423;-66
2023/12/02 04:41:57;;;;;;;14.15;7.75;;;0.60;99.90;;;;;;5010630;28;20103;-67
2023/12/02 04:44:25;;;;;;;18.52;6.85;;;0.90;99.90;;;;;;5011465;28;20053;-66
2023/12/02 04:46:52;;;;;;;15.95;7.35;;;0.70;99.90;;;;;;5011533;28;20471;-66
2023/12/02 04:49:19;;;;;;;11.82;6.88;;;0.70;99.90;;;;;;5027030;28;20053;-66
2023/12/02 04:51:46;;;;;;;14.32;8.27;;;0.70;99.90;;;;;;5028788;28;20091;-66
2023/12/02 04:54:13;;;;;;;14.65;7.30;;;0.70;99.90;;;;;;5024670;28;20045;-66
2023/12/02 04:56:40;;;;;;;18.63;8.52;;;0.70;99.90;;;;;;5029178;28;20060;-66
2023/12/02 04:59:07;;;;;;;16.13;8.25;;;1.10;99.90;;;;;;5027252;28;20045;-65
2023/12/02 05:01:33;;;;;;;16.45;8.27;;;0.70;99.90;;;;;;5026951;28;20042;-66
2023/12/02 05:04:00;;;;;;;20.92;9.77;;;0.70;99.90;;;;;;5027703;28;20074;-66
2023/12/02 05:06:27;;;;;;;19.05;9.88;;;0.60;99.90;;;;;;5028713;28;20129;-67
2023/12/02 05:08:54;;;;;;;20.63;9.38;;;0.60;99.90;;;;;;5028183;28;20045;-66
2023/12/02 05:11:21;;;;;;;18.23;8.88;;;0.70;99.90;;;;;;5028292;28;20081;-66
2023/12/02 05:13:48;;;;;;;19.27;9.10;;;0.70;99.90;;;;;;5027693;28;20105;-66
2023/12/02 05:16:15;;;;;;;20.67;10.07;;;0.80;99.90;;;;;;5028370;28;20570;-66
2023/12/02 05:18:42;;;;;;;19.38;9.63;;;0.60;99.90;;;;;;5012176;28;20041;-66
2023/12/02 05:21:09;;;;;;;19.95;9.35;;;0.60;99.90;;;;;;5030621;28;20056;-69
2023/12/02 05:23:36;;;;;;;17.20;8.13;;;0.50;99.90;;;;;;5029091;28;20037;-66
2023/12/02 05:26:03;;;;;;;14.45;8.18;;;0.50;99.90;;;;;;5011018;28;20046;-66
2023/12/02 05:28:30;;;;;;;18.83;9.57;;;0.50;99.90;;;;;;5031083;28;20046;-66
2023/12/02 05:30:57;;;;;;;15.35;8.48;;;0.50;99.90;;;;;;5013400;28;20111;-66
2023/12/02 05:33:24;;;;;;;17.52;7.65;;;0.40;99.90;;;;;;5030388;28;20042;-66
2023/12/02 05:35:51;;;;;;;19.92;9.95;;;0.40;99.90;;;;;;5027131;28;20046;-66
2023/12/02 05:38:17;;;;;;;17.70;8.70;;;0.60;99.90;;;;;;5010888;28;20076;-66
2023/12/02 05:40:44;;;;;;;17.08;9.35;;;0.50;99.90;;;;;;5028522;28;20045;-66
2023/12/02 05:43:11;;;;;;;14.80;7.90;;;0.60;99.90;;;;;;5028882;28;20053;-67
2023/12/02 05:45:38;;;;;;;17.35;9.48;;;0.70;99.90;;;;;;5011572;28;20141;-66
2023/12/02 05:48:05;;;;;;;20.60;9.38;;;0.60;99.90;;;;;;5030994;28;20053;-66
2023/12/02 05:50:32;;;;;;;17.15;9.48;;;0.50;99.90;;;;;;5029069;28;20113;-67
2023/12/02 05:52:59;;;;;;;13.38;8.60;;;0.50;99.90;;;;;;5013542;28;20076;-66
2023/12/02 05:55:26;;;;;;;14.43;7.53;;;0.40;99.90;;;;;;5031119;28;20337;-66
2023/12/02 05:57:53;;;;;;;15.70;7.60;;;0.40;99.90;;;;;;5028942;28;20048;-66
2023/12/02 06:00:20;;;;;;;12.23;6.93;;;0.60;99.90;;;;;;5012817;28;20489;-66
2023/12/02 06:02:47;;;;;;;15.82;7.80;;;0.40;99.90;;;;;;5029700;28;20481;-66
2023/12/02 06:05:14;;;;;;;15.50;8.07;;;0.50;99.90;;;;;;5026492;28;20107;-66
2023/12/02 06:07:41;;;;;;;15.05;8.10;;;0.40;99.90;;;;;;5010350;28;20049;-66
2023/12/02 06:10:08;;;;;;;13.50;7.30;;;0.30;99.90;;;;;;5028742;28;20065;-65
2023/12/02 06:12:35;;;;;;;15.85;8.23;;;0.30;99.90;;;;;;5028900;28;20087;-66
2023/12/02 06:15:02;;;;;;;14.95;7.88;;;0.20;99.90;;;;;;5028614;28;20051;-66
2023/12/02 06:17:29;;;;;;;14.15;8.27;;;0.20;99.90;;;;;;5013340;28;20044;-67
2023/12/02 06:19:56;;;;;;;13.45;8.02;;;0.20;99.90;;;;;;5029152;28;20041;-66
2023/12/02 06:22:23;;;;;;;16.38;8.82;;;0.20;99.90;;;;;;5011091;28;20053;-66
2023/12/02 06:24:50;;;;;;;19.20;9.13;;;0.50;99.90;;;;;;5017818;28;20112;-66
2023/12/02 06:27:17;;;;;;;18.20;9.52;;;0.30;99.90;;;;;;5014797;28;20155;-66
2023/12/02 06:29:44;;;;;;;16.05;8.75;;;0.30;99.90;;;;;;5022846;28;20057;-66
2023/12/02 06:32:11;;;;;;;16.88;8.98;;;0.40;99.90;;;;;;5025591;28;20516;-65
2023/12/02 06:34:37;;;;;;;18.45;10.05;;;0.40;99.90;;;;;;5025998;28;20050;-66
2023/12/02 06:37:05;;;;;;;16.25;9.48;;;0.30;99.90;;;;;;5026960;28;20049;-66
2023/12/02 06:39:32;;;;;;;19.60;10.25;;;0.30;99.90;;;;;;5020551;28;20064;-66
2023/12/02 06:41:59;;;;;;;19.92;10.75;;;0.30;99.90;;;;;;5030494;28;20398;-66
2023/12/02 06:44:26;;;;;;;20.00;10.90;;;0.30;99.90;;;;;;5030857;28;20140;-66
2023/12/02 06:46:52;;;;;;;18.15;9.30;;;0.30;99.90;;;;;;5030669;28;20125;-66
2023/12/02 06:49:19;;;;;;;16.15;9.32;;;0.60;99.90;;;;;;5028583;28;20060;-66
2023/12/02 06:51:46;;;;;;;15.25;8.25;;;0.20;99.90;;;;;;5010572;28;20069;-66
2023/12/02 06:54:13;;;;;;;15.70;8.75;;;0.10;99.90;;;;;;5026453;28;20056;-66
2023/12/02 06:56:41;;;;;;;12.15;6.95;;;0.20;99.90;;;;;;5026154;28;20058;-66
2023/12/02 06:59:08;;;;;;;18.58;9.68;;;0.50;99.90;;;;;;5029900;28;20048;-66
2023/12/02 07:01:35;;;;;;;16.10;8.68;;;0.20;99.90;;;;;;5013958;28;20045;-67
2023/12/02 07:04:02;;;;;;;17.45;7.82;;;0.20;99.90;;;;;;5027223;28;20357;-67
2023/12/02 07:06:29;;;;;;;17.63;8.70;;;0.20;99.90;;;;;;5023856;28;20785;-66
2023/12/02 07:08:56;;;;;;;18.17;8.85;;;0.10;99.90;;;;;;5029096;28;20596;-67
2023/12/02 07:11:23;;;;;;;15.27;7.82;;;0.00;99.90;;;;;;5021481;28;20053;-66
2023/12/02 07:13:50;;;;;;;19.85;8.05;;;0.00;99.90;;;;;;5025666;28;20049;-66
2023/12/02 07:16:17;;;;;;;13.27;8.13;;;0.00;99.90;;;;;;5011659;28;20049;-67
2023/12/02 07:18:44;;;;;;;17.73;8.55;;;-0.10;99.90;;;;;;5020496;28;20049;-65
2023/12/02 07:21:11;;;;;;;14.85;8.88;;;-0.10;99.90;;;;;;5020917;28;20054;-65
2023/12/02 07:23:38;;;;;;;14.73;7.57;;;0.00;99.90;;;;;;5021730;28;20049;-65
2023/12/02 07:26:05;;;;;;;17.42;8.18;;;0.10;99.90;;;;;;5021163;28;20077;-65
2023/12/02 07:28:34;;;;;;;15.52;8.52;;;0.20;99.90;;;;;;5013394;28;20041;-65
2023/12/02 07:31:01;;;;;;;16.48;9.35;;;0.20;99.90;;;;;;5020328;28;20050;-66
2023/12/02 07:33:28;;;;;;;18.73;9.82;;;0.30;99.90;;;;;;5024308;28;20241;-65
2023/12/02 07:35:55;;;;;;;19.88;10.15;;;0.30;99.90;;;;;;5026927;28;20524;-65
2023/12/02 07:38:22;;;;;;;16.77;9.27;;;0.30;99.90;;;;;;5030221;28;20065;-66
2023/12/02 07:40:49;;;;;;;17.52;8.75;;;0.50;99.90;;;;;;5028435;28;20052;-66
2023/12/02 07:43:16;;;;;;;16.35;8.75;;;0.30;99.90;;;;;;5013139;28;20555;-66
2023/12/02 07:45:42;;;;;;;22.20;9.07;;;0.30;99.90;;;;;;5002169;28;20046;-65
2023/12/02 07:48:10;;;;;;;17.00;8.23;;;0.30;99.90;;;;;;5030256;28;20302;-65
2023/12/02 07:50:38;;;;;;;14.65;8.05;;;0.20;99.90;;;;;;5033597;28;20057;-64
2023/12/02 07:53:05;;;;;;;17.25;9.80;;;0.20;99.90;;;;;;5035066;28;20492;-66
2023/12/02 07:55:32;;;;;;;17.98;9.35;;;0.10;99.90;;;;;;5033528;28;20061;-66
2023/12/02 07:57:59;;;;;;;19.70;9.65;;;0.10;99.90;;;;;;5032867;28;20045;-67
2023/12/02 08:00:26;;;;;;;15.68;8.93;;;0.10;99.90;;;;;;5034219;28;20049;-66
2023/12/02 08:02:53;;;;;;;17.35;8.90;;;0.20;99.90;;;;;;5031181;28;20049;-66
2023/12/02 08:05:20;;;;;;;16.45;9.32;;;0.10;99.90;;;;;;5033725;28;20053;-66
2023/12/02 08:07:51;;;;;;;17.52;9.00;;;0.20;99.90;;;;;;5034274;28;20523;-66
2023/12/02 08:10:18;;;;;;;16.70;8.80;;;0.20;99.90;;;;;;5016846;28;20120;-66
2023/12/02 08:12:45;;;;;;;19.50;9.57;;;0.20;99.90;;;;;;5016065;28;20049;-66
2023/12/02 08:15:11;;;;;;;19.00;10.07;;;0.30;99.90;;;;;;5015168;28;20046;-66
2023/12/02 08:17:39;;;;;;;14.63;9.13;;;0.20;99.90;;;;;;5029836;28;20045;-66
2023/12/02 08:20:06;;;;;;;14.50;9.60;;;0.20;99.90;;;;;;5032440;28;20083;-66
2023/12/02 08:22:34;;;;;;;16.83;8.55;;;0.10;99.90;;;;;;5033631;28;20080;-66
2023/12/02 08:25:00;;;;;;;15.80;8.55;;;0.10;99.90;;;;;;5015671;28;20056;-65
2023/12/02 08:27:27;;;;;;;14.65;8.93;;;0.10;99.90;;;;;;5034126;28;20144;-66
2023/12/02 08:29:54;;;;;;;16.80;9.65;;;0.10;99.90;;;;;;5028328;28;20141;-65
2023/12/02 08:32:22;;;;;;;14.95;8.80;;;0.20;99.90;;;;;;5031807;28;20120;-65
2023/12/02 08:34:48;;;;;;;16.17;7.95;;;0.00;99.90;;;;;;5019280;28;20046;-67
2023/12/02 08:37:15;;;;;;;16.10;8.75;;;0.00;99.90;;;;;;5000150;28;20053;-66
2023/12/02 08:39:42;;;;;;;14.98;7.50;;;0.00;99.90;;;;;;5018045;28;20092;-66
2023/12/02 08:42:09;;;;;;;16.90;9.40;;;0.10;99.90;;;;;;5022837;28;20054;-66
2023/12/02 08:44:37;;;;;;;14.50;8.75;;;0.20;99.90;;;;;;5028454;28;20042;-65
2023/12/02 08:47:06;;;;;;;18.27;9.48;;;0.30;99.90;;;;;;5029556;28;20555;-66
2023/12/02 08:49:33;;;;;;;21.02;10.15;;;0.20;99.90;;;;;;5020751;28;20144;-66
2023/12/02 08:52:03;;;;;;;16.63;9.75;;;0.20;99.90;;;;;;5028855;28;20068;-66
2023/12/02 08:54:30;;;;;;;19.80;9.15;;;0.20;99.90;;;;;;5027305;28;20103;-65
2023/12/02 08:56:57;;;;;;;16.17;8.88;;;0.10;99.90;;;;;;5025779;28;20046;-66
2023/12/02 08:59:24;;;;;;;15.60;8.07;;;0.10;99.90;;;;;;5024141;28;20696;-66
2023/12/02 09:01:50;;;;;;;13.50;7.82;;;0.00;99.90;;;;;;5024759;28;20128;-66
2023/12/02 09:04:18;;;;;;;15.05;8.93;;;0.10;99.90;;;;;;5025114;28;20042;-66
2023/12/02 09:06:44;;;;;;;17.65;9.70;;;0.00;99.90;;;;;;5028473;28;20057;-66
2023/12/02 09:09:11;;;;;;;14.63;9.02;;;0.10;99.90;;;;;;5021582;28;20049;-66
2023/12/02 09:11:41;;;;;;;23.70;10.43;;;0.20;99.90;;;;;;5026714;28;20050;-66
2023/12/02 09:14:08;;;;;;;19.80;8.80;;;0.30;99.90;;;;;;5028845;28;20041;-65
2023/12/02 09:16:35;;;;;;;17.42;9.00;;;0.40;99.90;;;;;;5026817;28;20503;-65
2023/12/02 09:19:04;;;;;;;16.15;8.52;;;0.20;99.90;;;;;;5019307;28;20041;-64
2023/12/02 09:21:45;;;;;;;15.80;7.95;;;0.20;99.90;;;;;;4984457;28;20051;-64
2023/12/02 09:24:34;;;;;;;15.63;8.50;;;0.10;99.90;;;;;;5010765;28;20053;-64
2023/12/02 09:27:05;;;;;;;14.10;8.07;;;0.00;99.90;;;;;;5018277;28;20496;-65
2023/12/02 09:29:41;;;;;;;14.07;7.95;;;0.00;99.90;;;;;;5019210;28;20068;-65
2023/12/02 09:32:17;;;;;;;18.90;9.43;;;0.10;99.90;;;;;;5020927;28;20041;-65
2023/12/02 09:34:51;;;;;;;18.70;8.75;;;0.20;99.90;;;;;;5028292;28;20498;-64
2023/12/02 09:37:50;;;;;;;14.93;8.35;;;0.30;99.90;;;;;;5017885;28;20132;-64
2023/12/02 09:40:20;;;;;;;17.48;9.52;;;0.30;99.90;;;;;;5020278;28;20650;-65
2023/12/02 09:42:50;;;;;;;15.60;9.10;;;0.40;99.90;;;;;;5022838;28;20409;-64
2023/12/02 09:45:18;;;;;;;17.27;9.23;;;0.40;99.90;;;;;;5020290;28;20378;-64
2023/12/02 09:47:46;;;;;;;19.55;12.07;;;0.50;99.90;;;;;;5017105;28;20099;-65
2023/12/02 09:50:13;;;;;;;16.85;9.57;;;0.50;99.90;;;;;;5001702;28;20137;-64
2023/12/02 09:53:07;;;;;;;18.52;9.20;;;0.50;99.90;;;;;;5000186;28;20049;-64
2023/12/02 09:55:41;;;;;;;21.67;10.57;;;0.40;99.90;;;;;;5015636;28;20045;-64
2023/12/02 09:58:21;;;;;;;21.35;11.00;;;0.40;99.90;;;;;;5002151;28;20432;-64
2023/12/02 10:01:04;;;;;;;23.10;9.93;;;0.50;99.90;;;;;;5027193;28;20235;-64
2023/12/02 10:03:36;;;;;;;20.10;10.18;;;0.40;99.90;;;;;;5009229;28;20061;-63
2023/12/02 10:06:32;;;;;;;19.40;11.15;;;0.40;99.90;;;;;;5010128;28;20064;-64
2023/12/02 10:09:23;;;;;;;22.70;10.18;;;0.40;99.90;;;;;;4678561;28;10000013;-64
2023/12/02 10:12:14;;;;;;;22.45;11.25;;;0.40;99.90;;;;;;5019445;28;20076;-64
2023/12/02 10:14:41;;;;;;;23.65;12.18;;;0.50;99.90;;;;;;5022706;28;20083;-64
2023/12/02 10:17:09;;;;;;;20.92;10.35;;;0.50;99.90;;;;;;5002846;28;20432;-65
2023/12/02 10:19:52;;;;;;;23.88;11.77;;;0.40;99.90;;;;;;4999856;28;20046;-64
2023/12/02 10:22:19;;;;;;;23.35;12.40;;;0.30;99.90;;;;;;4998629;28;20056;-64
2023/12/02 10:25:13;;;;;;;25.92;12.93;;;0.30;99.90;;;;;;5002865;28;20046;-64
2023/12/02 10:27:41;;;;;;;27.67;12.35;;;0.20;99.90;;;;;;5005886;28;20336;-64
2023/12/02 10:30:17;;;;;;;24.08;11.57;;;0.20;99.90;;;;;;5006769;28;20378;-65
2023/12/02 10:32:48;;;;;;;22.85;12.00;;;0.30;99.90;;;;;;5023823;28;20126;-64
2023/12/02 10:35:20;;;;;;;24.92;12.95;;;0.30;99.90;;;;;;5021269;28;20527;-63
2023/12/02 10:38:12;;;;;;;22.17;12.15;;;0.30;99.90;;;;;;5020773;28;20160;-65
2023/12/02 10:40:41;;;;;;;28.48;13.52;;;0.00;99.90;;;;;;5005905;28;20457;-64
2023/12/02 10:43:13;;;;;;;22.42;12.15;;;0.30;99.90;;;;;;5006488;28;20562;-68
2023/12/02 10:45:40;;;;;;;26.73;12.90;;;0.30;99.90;;;;;;5005403;28;20363;-63
2023/12/02 10:48:08;;;;;;;26.02;12.95;;;0.30;99.90;;;;;;5023813;28;20045;-63
2023/12/02 10:50:35;;;;;;;25.27;13.00;;;0.40;99.90;;;;;;5023572;28;20424;-62
2023/12/02 10:53:03;;;;;;;26.58;11.23;;;0.40;99.90;;;;;;4996883;28;20049;-62
2023/12/02 10:55:32;;;;;;;23.80;11.43;;;0.30;99.90;;;;;;5019127;28;20045;-62
2023/12/02 10:58:00;;;;;;;25.00;12.70;;;0.30;99.90;;;;;;5007213;28;20041;-64
2023/12/02 11:00:29;;;;;;;30.05;12.23;;;0.20;99.90;;;;;;5008811;28;20058;-63
2023/12/02 11:03:05;;;;;;;25.90;14.02;;;0.50;99.90;;;;;;4985962;28;20049;-63
2023/12/02 11:05:50;;;;;;;23.95;12.32;;;0.50;99.90;;;;;;5022642;28;20428;-62
2023/12/02 11:08:19;;;;;;;23.23;12.18;;;0.50;99.90;;;;;;5016516;28;20101;-62
2023/12/02 11:10:52;;;;;;;28.70;13.43;;;0.40;99.90;;;;;;5003392;28;20056;-62
2023/12/02 11:13:19;;;;;;;28.38;14.48;;;0.20;99.90;;;;;;5000210;28;20049;-62
2023/12/02 11:16:20;;;;;;;26.77;13.35;;;0.40;99.90;;;;;;5023681;28;20049;-62
2023/12/02 11:19:15;;;;;;;30.00;15.45;;;0.40;99.90;;;;;;5024768;28;20119;-63
2023/12/02 11:22:19;;;;;;;33.58;15.15;;;0.40;99.90;;;;;;5020370;28;20148;-62
2023/12/02 11:24:46;;;;;;;34.08;14.90;;;0.40;99.90;;;;;;5014504;28;20088;-63
2023/12/02 11:27:38;;;;;;;38.30;16.05;;;0.50;99.90;;;;;;5031393;28;20085;-62
2023/12/02 11:30:12;;;;;;;34.70;17.20;;;0.60;99.90;;;;;;5008826;28;20045;-62
2023/12/02 11:33:00;;;;;;;31.42;15.90;;;0.70;99.90;;;;;;4999232;28;20135;-63
2023/12/02 11:35:33;;;;;;;29.05;14.77;;;0.60;99.90;;;;;;5002246;28;20045;-63
2023/12/02 11:38:12;;;;;;;33.75;16.85;;;0.70;99.90;;;;;;5028861;28;20114;-62
2023/12/02 11:41:04;;;;;;;28.88;14.27;;;0.80;99.90;;;;;;4996106;28;20073;-62
2023/12/02 11:44:15;;;;;;;30.48;14.40;;;0.80;99.90;;;;;;5010787;28;20090;-62
2023/12/02 11:47:08;;;;;;;27.13;13.77;;;0.80;99.90;;;;;;4982933;28;20492;-62
2023/12/02 11:49:58;;;;;;;26.27;12.93;;;0.70;99.90;;;;;;5022204;28;20050;-62
2023/12/02 11:52:37;;;;;;;30.15;13.35;;;0.70;99.90;;;;;;5010589;28;20056;-61
2023/12/02 11:55:09;;;;;;;28.65;14.13;;;0.70;99.90;;;;;;5009539;28;20041;-62
2023/12/02 11:57:50;;;;;;;26.67;13.38;;;0.60;99.90;;;;;;5013158;28;20577;-62
2023/12/02 12:00:23;;;;;;;24.10;13.07;;;0.60;99.90;;;;;;5020093;28;20127;-63
2023/12/02 12:03:10;;;;;;;27.20;12.98;;;0.50;99.90;;;;;;5023700;28;20049;-62
2023/12/02 12:06:07;;;;;;;29.13;13.80;;;0.50;99.90;;;;;;5006898;28;20708;-63
2023/12/02 12:08:41;;;;;;;31.00;15.25;;;0.50;99.90;;;;;;5010959;28;20033;-63
2023/12/02 12:11:09;;;;;;;27.65;13.48;;;0.60;99.90;;;;;;5010971;28;20053;-63
2023/12/02 12:13:35;;;;;;;28.00;14.52;;;0.60;99.90;;;;;;5009275;28;20041;-63
2023/12/02 12:16:02;;;;;;;29.65;14.25;;;0.60;99.90;;;;;;5028329;28;20057;-63
2023/12/02 12:18:29;;;;;;;28.92;14.68;;;0.60;99.90;;;;;;5010280;28;20049;-63
2023/12/02 12:20:56;;;;;;;30.08;13.85;;;0.60;99.90;;;;;;5027560;28;20124;-63
2023/12/02 12:23:24;;;;;;;27.23;13.32;;;0.60;99.90;;;;;;5022972;28;20053;-63
2023/12/02 12:25:51;;;;;;;30.98;13.85;;;0.60;99.90;;;;;;5018866;28;20054;-63
2023/12/02 12:28:18;;;;;;;29.23;13.60;;;0.70;99.90;;;;;;5026515;28;20146;-63
2023/12/02 12:30:48;;;;;;;27.00;13.13;;;0.70;99.90;;;;;;5026854;28;20150;-64
2023/12/02 12:33:22;;;;;;;26.67;12.50;;;0.70;99.90;;;;;;5024036;28;20122;-63
2023/12/02 12:35:49;;;;;;;24.75;12.45;;;0.90;99.90;;;;;;5007747;28;20041;-63
2023/12/02 12:38:16;;;;;;;23.17;12.25;;;0.80;99.90;;;;;;5024257;28;20072;-63
2023/12/02 12:40:44;;;;;;;31.02;12.82;;;0.90;99.90;;;;;;5016164;28;20456;-63
2023/12/02 12:43:12;;;;;;;25.23;12.38;;;0.90;99.90;;;;;;5023726;28;20132;-63
2023/12/02 12:45:39;;;;;;;28.73;12.13;;;0.90;99.90;;;;;;5019369;28;20137;-63
2023/12/02 12:48:06;;;;;;;25.33;13.50;;;0.90;99.90;;;;;;5016575;28;20489;-63
2023/12/02 12:50:34;;;;;;;20.35;10.95;;;0.90;99.90;;;;;;4676828;28;10000580;-63
2023/12/02 12:53:10;;;;;;;25.63;11.73;;;0.90;99.90;;;;;;4992090;28;20049;-63
2023/12/02 12:55:38;;;;;;;31.50;12.00;;;0.80;99.90;;;;;;5010781;28;20042;-63